Time;durP1;ratioP1;P1;durP2;ratioP2;P2;SDS_P1;SDS_P2;PMS_P1;PMS_P2;Temp;Humidity;BMP_temperature;BMP_pressure;BME280_temperature;BME280_humidity;BME280_pressure;Samples;Min_cycle;Max_cycle;Signal;HPM_P1;HPM_P2
2024/02/12 00:00:43;;;;;;;0.80;0.43;;;;;;;8.74;69.75;95065.19;5013594;28;20058;-79
2024/02/12 00:03:11;;;;;;;1.25;0.63;;;;;;;8.73;68.90;95068.03;5013050;28;20497;-80
2024/02/12 00:05:39;;;;;;;0.77;0.60;;;;;;;8.72;69.22;95063.81;5013113;28;20075;-80
2024/02/12 00:08:10;;;;;;;0.82;0.82;;;;;;;8.67;67.73;95067.03;5012773;28;20054;-80
2024/02/12 00:10:39;;;;;;;0.80;0.60;;;;;;;8.61;68.65;95071.25;5013534;28;20053;-80
2024/02/12 00:13:07;;;;;;;0.93;0.40;;;;;;;8.57;68.91;95067.50;5012790;28;20049;-80
2024/02/12 00:15:36;;;;;;;1.52;0.70;;;;;;;8.59;67.80;95081.09;5013998;28;20062;-80
2024/02/12 00:18:05;;;;;;;0.50;0.50;;;;;;;8.57;69.37;95071.88;5016700;28;20136;-79
2024/02/12 00:20:32;;;;;;;1.08;0.65;;;;;;;8.57;68.00;95075.28;5016678;28;20085;-79
2024/02/12 00:23:01;;;;;;;0.45;0.43;;;;;;;8.58;69.71;95076.06;5017019;28;20088;-80
2024/02/12 00:25:33;;;;;;;0.77;0.60;;;;;;;8.57;68.30;95077.88;5016384;28;20057;-80
2024/02/12 00:28:00;;;;;;;1.02;0.40;;;;;;;8.53;68.18;95071.50;5016037;28;20081;-79
2024/02/12 00:30:32;;;;;;;1.45;0.40;;;;;;;8.52;68.25;95077.69;5016148;28;20050;-80
2024/02/12 00:33:03;;;;;;;1.05;0.40;;;;;;;8.51;67.45;95073.50;5016031;28;20499;-79
2024/02/12 00:35:31;;;;;;;0.65;0.40;;;;;;;8.47;68.01;95074.91;5016421;28;20050;-80
2024/02/12 00:38:00;;;;;;;0.50;0.50;;;;;;;8.48;68.93;95081.69;5016288;28;20428;-80
2024/02/12 00:40:27;;;;;;;0.82;0.40;;;;;;;8.49;68.68;95080.72;5016429;28;20046;-80
2024/02/12 00:42:57;;;;;;;0.43;0.40;;;;;;;8.52;70.72;95077.69;5015460;28;20076;-79
2024/02/12 00:45:25;;;;;;;0.73;0.50;;;;;;;8.55;69.09;95077.28;5016743;28;20112;-80
2024/02/12 00:47:55;;;;;;;0.80;0.50;;;;;;;8.54;69.11;95086.06;5017814;28;20076;-80
2024/02/12 00:50:25;;;;;;;0.52;0.52;;;;;;;8.57;71.99;95083.09;5017354;28;20073;-80
2024/02/12 00:52:53;;;;;;;0.70;0.68;;;;;;;8.63;70.83;95071.84;5016802;28;20104;-79
2024/02/12 00:55:21;;;;;;;0.30;0.20;;;;;;;8.66;72.34;95078.44;5016041;28;20050;-79
2024/02/12 00:57:48;;;;;;;0.88;0.38;;;;;;;8.70;72.55;95084.00;5016338;28;20502;-80
2024/02/12 01:00:17;;;;;;;1.25;0.75;;;;;;;8.74;73.23;95087.81;5015947;28;20081;-79
2024/02/12 01:02:45;;;;;;;0.95;0.40;;;;;;;8.75;70.99;95086.81;5015761;28;20133;-79
2024/02/12 01:05:13;;;;;;;0.38;0.30;;;;;;;8.76;71.78;95081.38;5015968;28;20060;-80
2024/02/12 01:07:42;;;;;;;0.40;0.20;;;;;;;8.80;72.35;95086.97;5032366;28;20056;-80
2024/02/12 01:10:11;;;;;;;1.20;0.60;;;;;;;8.80;71.29;95086.97;5015894;28;20144;-79
2024/02/12 01:12:40;;;;;;;0.38;0.20;;;;;;;8.82;71.88;95082.38;5015438;28;20081;-80
2024/02/12 01:15:09;;;;;;;0.57;0.47;;;;;;;8.81;71.15;95086.78;5015353;28;20046;-80
2024/02/12 01:17:37;;;;;;;0.28;0.28;;;;;;;8.83;72.59;95084.78;5015719;28;20050;-80
2024/02/12 01:20:11;;;;;;;0.50;0.35;;;;;;;8.84;71.11;95093.38;5015645;28;20482;-79
2024/02/12 01:22:39;;;;;;;0.88;0.40;;;;;;;8.83;71.23;95094.34;5015537;28;20046;-79
2024/02/12 01:25:09;;;;;;;0.40;0.30;;;;;;;8.81;71.19;95094.59;5015572;28;20133;-79
2024/02/12 01:27:38;;;;;;;0.10;0.10;;;;;;;8.77;70.79;95095.22;5059547;22;20139;-79
2024/02/12 01:30:08;;;;;;;0.50;0.30;;;;;;;8.78;72.08;95089.78;5075217;28;20642;-79
2024/02/12 01:32:36;;;;;;;1.02;0.20;;;;;;;8.81;72.60;95085.97;5075208;28;20044;-80
2024/02/12 01:35:05;;;;;;;0.68;0.30;;;;;;;8.83;73.57;95086.56;5075027;28;20045;-80
2024/02/12 01:37:33;;;;;;;0.80;0.43;;;;;;;8.82;73.17;95083.16;5070966;28;20049;-79
2024/02/12 01:40:01;;;;;;;0.70;0.30;;;;;;;8.85;73.77;95084.53;5054737;28;20103;-79
2024/02/12 01:42:31;;;;;;;0.38;0.30;;;;;;;8.87;74.37;95088.53;5054077;28;20343;-79
2024/02/12 01:45:04;;;;;;;0.63;0.43;;;;;;;8.88;73.98;95084.16;5054053;28;20045;-80
2024/02/12 01:47:33;;;;;;;0.55;0.40;;;;;;;8.89;74.27;95085.72;5054078;28;20049;-80
2024/02/12 01:50:02;;;;;;;0.93;0.35;;;;;;;8.87;73.07;95075.53;5053202;28;20504;-79
2024/02/12 01:52:31;;;;;;;0.73;0.30;;;;;;;8.88;74.17;95084.16;5053873;28;20143;-80
2024/02/12 01:55:02;;;;;;;1.15;0.20;;;;;;;8.89;74.37;95084.94;5053767;28;20136;-80
2024/02/12 01:57:33;;;;;;;0.45;0.30;;;;;;;8.89;74.81;95083.13;5053626;28;20048;-79
2024/02/12 02:00:11;;;;;;;0.63;0.30;;;;;;;8.90;74.93;95083.91;5053567;28;20102;-80
2024/02/12 02:02:42;;;;;;;1.65;0.25;;;;;;;8.89;74.93;95080.53;5056704;28;20053;-78
2024/02/12 02:05:11;;;;;;;0.90;0.30;;;;;;;8.88;75.73;95084.16;5074064;28;20033;-79
2024/02/12 02:07:39;;;;;;;0.57;0.35;;;;;;;8.87;75.40;95077.34;5076527;28;20053;-78
2024/02/12 02:10:09;;;;;;;0.45;0.30;;;;;;;8.86;74.08;95078.34;5058590;28;20489;-79
2024/02/12 02:12:38;;;;;;;0.73;0.50;;;;;;;8.83;74.05;95076.16;5054516;28;20049;-79
2024/02/12 02:15:07;;;;;;;1.40;0.35;;;;;;;8.81;73.87;95086.78;5054081;28;20493;-79
2024/02/12 02:17:34;;;;;;;2.20;0.30;;;;;;;8.81;73.34;95085.97;5053985;28;20045;-80
2024/02/12 02:20:02;;;;;;;0.70;0.20;;;;;;;8.81;73.63;95088.56;5054520;28;20087;-79
2024/02/12 02:22:30;;;;;;;1.88;0.22;;;;;;;8.81;73.77;95091.16;5054325;28;20144;-79
2024/02/12 02:24:59;;;;;;;0.35;0.13;;;;;;;8.79;72.07;95086.19;5054022;28;20131;-80
2024/02/12 02:27:26;;;;;;;0.93;0.40;;;;;;;8.79;73.21;95087.97;5054007;28;20053;-80
2024/02/12 02:29:54;;;;;;;0.30;0.30;;;;;;;8.80;73.90;95081.78;5053827;28;20136;-80
2024/02/12 02:32:21;;;;;;;1.42;0.28;;;;;;;8.80;73.10;95086.97;5053953;28;20416;-79
2024/02/12 02:34:50;;;;;;;1.25;0.28;;;;;;;8.80;72.35;95086.97;5053580;28;20045;-79
2024/02/12 02:37:18;;;;;;;1.17;0.60;;;;;;;8.78;71.58;95083.78;5053530;28;20099;-81
2024/02/12 02:39:46;;;;;;;0.55;0.38;;;;;;;8.78;72.47;95081.97;5052724;28;20060;-82
2024/02/12 02:42:15;;;;;;;0.55;0.20;;;;;;;8.79;71.14;95091.38;5052530;28;20049;-82
2024/02/12 02:44:44;;;;;;;1.52;0.32;;;;;;;8.81;73.35;95091.16;5052345;28;20049;-82
2024/02/12 02:47:12;;;;;;;0.95;0.20;;;;;;;8.83;73.50;95092.56;5052432;28;20508;-82
2024/02/12 02:49:41;;;;;;;0.80;0.40;;;;;;;8.83;73.33;95094.34;5052261;28;20056;-82
2024/02/12 02:52:09;;;;;;;0.68;0.40;;;;;;;8.81;73.22;95093.75;5052536;28;20099;-82
2024/02/12 02:54:36;;;;;;;0.40;0.40;;;;;;;8.83;72.12;95096.94;5052108;28;20071;-82
2024/02/12 02:57:05;;;;;;;0.10;0.10;;;;;;;8.84;72.64;95098.56;5052437;28;20133;-82
2024/02/12 02:59:34;;;;;;;0.85;0.50;;;;;;;8.86;73.46;95099.16;5052757;28;20102;-82
2024/02/12 03:02:02;;;;;;;0.82;0.38;;;;;;;8.87;73.36;95098.13;5052342;28;20087;-82
2024/02/12 03:04:29;;;;;;;0.22;0.13;;;;;;;8.87;72.02;95098.13;5052149;28;20064;-81
2024/02/12 03:06:58;;;;;;;0.93;0.35;;;;;;;8.83;72.93;95102.16;5052387;28;20056;-82
2024/02/12 03:09:26;;;;;;;0.90;0.40;;;;;;;8.82;72.61;95095.38;5052570;28;20128;-82
2024/02/12 03:11:54;;;;;;;0.20;0.20;;;;;;;8.83;73.43;95102.97;5052007;28;20515;-80
2024/02/12 03:14:22;;;;;;;0.20;0.20;;;;;;;8.83;72.48;95102.16;5051962;28;20441;-81
2024/02/12 03:16:53;;;;;;;0.17;0.17;;;;;;;8.81;72.94;95106.75;5052291;28;20478;-82
2024/02/12 03:19:21;;;;;;;0.45;0.20;;;;;;;8.80;72.12;95107.78;5052279;28;20059;-82
2024/02/12 03:21:49;;;;;;;0.45;0.30;;;;;;;8.79;72.21;95107.00;5052131;28;20048;-82
2024/02/12 03:24:19;;;;;;;0.30;0.30;;;;;;;8.80;72.11;95102.56;5051897;28;20052;-82
2024/02/12 03:26:47;;;;;;;0.20;0.20;;;;;;;8.79;72.69;95112.19;5052360;28;20056;-82
2024/02/12 03:29:15;;;;;;;0.30;0.15;;;;;;;8.78;72.99;95105.38;5051897;28;20140;-82
2024/02/12 03:31:43;;;;;;;0.32;0.20;;;;;;;8.79;72.23;95106.16;5051998;28;20052;-82
2024/02/12 03:34:13;;;;;;;1.50;0.40;;;;;;;8.77;72.24;95116.00;5052226;28;20053;-79
2024/02/12 03:36:41;;;;;;;0.68;0.35;;;;;;;8.78;72.61;95110.56;5054547;28;20067;-77
2024/02/12 03:39:10;;;;;;;0.47;0.30;;;;;;;8.78;72.81;95117.59;5067083;28;20104;-79
2024/02/12 03:41:38;;;;;;;0.20;0.20;;;;;;;8.76;71.19;95117.00;5052759;28;20136;-79
2024/02/12 03:44:06;;;;;;;0.32;0.30;;;;;;;8.74;72.10;95121.59;5052633;28;20087;-79
2024/02/12 03:46:38;;;;;;;1.10;0.47;;;;;;;8.74;73.05;95119.78;5052682;28;20056;-79
2024/02/12 04:00:17;;;;;;;0.95;0.40;;;;;;;8.66;71.92;95133.84;5056789;28;20073;-79
2024/02/12 04:02:46;;;;;;;0.75;0.35;;;;;;;8.66;72.38;95139.03;5056461;28;20132;-79
2024/02/12 04:05:14;;;;;;;0.90;0.63;;;;;;;8.64;72.33;95141.03;5055411;28;20049;-79
2024/02/12 04:07:43;;;;;;;1.73;0.20;;;;;;;8.62;71.45;95148.25;5056390;28;20049;-79
2024/02/12 04:10:11;;;;;;;0.30;0.30;;;;;;;8.62;72.01;95148.25;5056549;28;20479;-80
2024/02/12 04:12:39;;;;;;;0.40;0.20;;;;;;;8.60;72.23;95150.25;5056045;28;20592;-79
2024/02/12 04:15:10;;;;;;;0.55;0.20;;;;;;;8.60;72.34;95155.44;5056133;28;20068;-79
2024/02/12 04:17:38;;;;;;;0.85;0.22;;;;;;;8.58;71.01;95162.63;5056285;28;20053;-79
2024/02/12 04:20:10;;;;;;;1.05;0.20;;;;;;;8.53;70.49;95165.06;5056361;28;20432;-79
2024/02/12 04:22:38;;;;;;;0.98;0.28;;;;;;;8.52;71.42;95166.06;5056071;28;20088;-80
2024/02/12 04:25:10;;;;;;;1.65;0.20;;;;;;;8.50;72.80;95170.66;5056086;28;20048;-79
2024/02/12 04:27:41;;;;;;;0.22;0.20;;;;;;;8.47;71.90;95171.06;5055832;28;20467;-80
2024/02/12 04:30:10;;;;;;;0.80;0.77;;;;;;;8.47;72.12;95181.47;5055871;28;20071;-79
2024/02/12 04:32:38;;;;;;;1.88;0.50;;;;;;;8.44;71.99;95187.06;5055614;28;20041;-80
2024/02/12 04:35:07;;;;;;;3.33;0.75;;;;;;;8.40;71.62;95189.28;5055727;28;20100;-80
2024/02/12 04:37:34;;;;;;;0.50;0.40;;;;;;;8.38;72.51;95191.25;5055820;28;20459;-79
2024/02/12 04:40:03;;;;;;;1.95;0.38;;;;;;;8.36;71.74;95189.84;5055634;28;20049;-80
2024/02/12 04:42:32;;;;;;;0.52;0.20;;;;;;;8.33;71.57;95192.84;5055755;28;20080;-77
2024/02/12 04:44:59;;;;;;;1.45;0.30;;;;;;;8.34;72.47;95194.44;5055660;28;20059;-79
2024/02/12 04:47:27;;;;;;;0.85;0.40;;;;;;;8.34;73.23;95194.44;5055571;28;20492;-78
2024/02/12 04:49:54;;;;;;;0.43;0.43;;;;;;;8.35;73.37;95188.25;5055738;28;20098;-79
2024/02/12 04:52:22;;;;;;;0.45;0.35;;;;;;;8.35;73.63;95196.03;5055686;28;20076;-80
2024/02/12 04:54:50;;;;;;;0.70;0.20;;;;;;;8.37;73.76;95194.03;5055566;28;20044;-79
2024/02/12 04:57:17;;;;;;;1.08;0.30;;;;;;;8.38;74.85;95195.66;5055376;28;20045;-79
2024/02/12 04:59:46;;;;;;;1.00;0.40;;;;;;;8.42;75.20;95209.88;5055253;28;20045;-80
2024/02/12 05:02:13;;;;;;;0.82;0.43;;;;;;;8.39;74.18;95205.81;5054014;28;20412;-79
2024/02/12 05:04:41;;;;;;;0.40;0.40;;;;;;;8.39;73.82;95205.81;5055398;28;20417;-79
2024/02/12 05:07:10;;;;;;;3.08;0.90;;;;;;;8.40;73.83;95217.03;5055451;28;20136;-79
2024/02/12 05:09:37;;;;;;;0.93;0.70;;;;;;;8.38;73.50;95214.63;5055861;28;20102;-79
2024/02/12 05:12:06;;;;;;;0.57;0.40;;;;;;;8.40;74.52;95219.63;5075144;28;20077;-78
2024/02/12 05:14:34;;;;;;;1.02;0.20;;;;;;;8.39;74.42;95216.22;5074802;28;20143;-79
2024/02/12 05:17:05;;;;;;;0.70;0.30;;;;;;;8.39;73.75;95223.22;5056797;28;20049;-79
2024/02/12 05:22:34;;;;;;;2.67;0.30;;;;;;;8.38;74.33;95226.81;5055558;28;20137;-80
2024/02/12 05:25:04;;;;;;;0.68;0.38;;;;;;;8.35;74.19;95225.44;5054894;28;20143;-80
2024/02/12 05:27:32;;;;;;;0.70;0.38;;;;;;;8.31;73.40;95229.44;5055177;28;20092;-79
2024/02/12 05:30:00;;;;;;;1.20;0.47;;;;;;;8.29;73.22;95230.59;5055167;28;20113;-79
2024/02/12 05:32:29;;;;;;;0.63;0.50;;;;;;;8.28;74.35;95234.22;5054754;28;20048;-82
2024/02/12 05:34:56;;;;;;;1.75;1.40;;;;;;;8.28;74.76;95237.59;5048329;28;20069;-81
2024/02/12 05:37:24;;;;;;;1.10;0.73;;;;;;;8.31;74.47;95239.00;5039260;28;20519;-82
2024/02/12 05:39:52;;;;;;;0.57;0.47;;;;;;;8.24;72.81;95237.22;5043847;28;20076;-81
2024/02/12 05:42:19;;;;;;;0.40;0.40;;;;;;;8.22;74.05;95241.81;5060650;28;20076;-77
2024/02/12 05:44:47;;;;;;;2.47;0.60;;;;;;;8.21;73.44;95250.59;5060017;28;20095;-78
2024/02/12 05:47:15;;;;;;;1.17;0.60;;;;;;;8.18;73.36;95235.44;5040735;28;20103;-77
2024/02/12 05:49:45;;;;;;;0.50;0.50;;;;;;;8.16;72.98;95242.63;5052509;28;20492;-78
2024/02/12 05:52:13;;;;;;;1.20;0.40;;;;;;;8.17;73.63;95238.22;5045286;28;20132;-79
2024/02/12 05:54:41;;;;;;;1.05;0.52;;;;;;;8.18;73.38;95248.41;5034250;28;20045;-79
2024/02/12 05:57:10;;;;;;;2.65;2.10;;;;;;;8.17;72.95;95253.81;5034479;28;20421;-78
2024/02/12 05:59:38;;;;;;;24.65;13.88;;;;;;;8.17;73.51;95249.41;5034352;28;20049;-79
2024/02/12 06:02:06;;;;;;;3.25;1.60;;;;;;;8.19;73.38;95259.59;5034835;28;20050;-79
2024/02/12 06:04:33;;;;;;;1.90;0.70;;;;;;;8.18;72.31;95250.22;5034124;28;20049;-82
2024/02/12 06:07:03;;;;;;;4.53;0.60;;;;;;;8.18;73.59;95260.59;5034162;28;20056;-78
2024/02/12 06:09:32;;;;;;;0.60;0.50;;;;;;;8.18;73.47;95264.00;5053193;28;20053;-80
2024/02/12 06:12:00;;;;;;;2.13;0.70;;;;;;;8.19;73.87;95260.38;5052731;28;20076;-79
2024/02/12 06:14:27;;;;;;;0.47;0.47;;;;;;;8.20;74.28;95263.81;5038795;28;20065;-80
2024/02/12 06:16:55;;;;;;;1.23;0.60;;;;;;;8.19;74.36;95273.38;5048740;28;20041;-77
2024/02/12 06:19:23;;;;;;;1.38;1.08;;;;;;;8.14;73.22;95280.97;5042963;28;20055;-76
2024/02/12 06:21:51;;;;;;;2.33;1.42;;;;;;;8.10;73.83;95284.97;5052229;28;20049;-76
2024/02/12 06:24:19;;;;;;;0.80;0.80;;;;;;;8.10;73.50;95284.16;5051121;28;20048;-76
2024/02/12 06:26:47;;;;;;;1.38;0.82;;;;;;;8.07;72.87;95280.19;5051715;28;20484;-76
2024/02/12 06:29:14;;;;;;;1.20;1.00;;;;;;;8.06;73.65;95286.34;5051029;28;20107;-76
2024/02/12 06:31:42;;;;;;;2.10;0.82;;;;;;;8.05;73.42;95293.34;5050915;28;20586;-77
2024/02/12 06:34:11;;;;;;;0.75;0.50;;;;;;;8.05;74.60;95295.94;5051069;28;20049;-76
2024/02/12 06:36:39;;;;;;;1.55;0.90;;;;;;;8.05;73.75;95297.75;5051596;28;20052;-77
2024/02/12 06:39:07;;;;;;;0.77;0.77;;;;;;;8.06;73.55;95296.75;5053097;28;20136;-77
2024/02/12 06:41:36;;;;;;;1.05;0.95;;;;;;;8.05;73.25;95306.34;5052908;28;20084;-76
2024/02/12 06:44:04;;;;;;;1.67;0.90;;;;;;;8.06;73.75;95314.91;5052417;28;20068;-76
2024/02/12 06:46:32;;;;;;;1.10;1.00;;;;;;;8.04;73.58;95311.72;5053090;28;20056;-76
2024/02/12 06:49:00;;;;;;;1.17;1.00;;;;;;;8.03;74.09;95317.94;5052897;28;20049;-76
2024/02/12 06:51:29;;;;;;;4.03;1.50;;;;;;;8.02;73.49;95324.09;5052650;28;20051;-76
2024/02/12 06:53:57;;;;;;;4.65;1.80;;;;;;;8.00;73.06;95324.31;5052389;28;20151;-76
2024/02/12 06:56:24;;;;;;;2.78;2.10;;;;;;;8.00;74.43;95326.91;5052763;28;20136;-76
2024/02/12 06:58:53;;;;;;;3.42;1.33;;;;;;;8.01;73.53;95327.72;5052750;28;20506;-77
2024/02/12 07:01:21;;;;;;;1.73;1.00;;;;;;;7.99;73.35;95330.50;5052533;28;20049;-76
2024/02/12 07:03:49;;;;;;;1.80;1.00;;;;;;;7.97;73.00;95329.09;5052508;28;20051;-77
2024/02/12 07:06:17;;;;;;;3.58;1.00;;;;;;;7.99;73.46;95343.47;5070519;28;20484;-77
2024/02/12 07:08:45;;;;;;;2.80;1.42;;;;;;;8.00;73.07;95336.47;5053374;28;20123;-77
2024/02/12 07:11:14;;;;;;;2.33;1.42;;;;;;;8.01;72.63;95344.09;5063717;28;20059;-76
2024/02/12 07:13:42;;;;;;;4.50;1.35;;;;;;;8.00;72.81;95346.88;5069573;28;20424;-76
2024/02/12 07:16:17;;;;;;;2.15;1.52;;;;;;;8.00;74.52;95355.47;5061872;28;20091;-76
2024/02/12 07:18:45;;;;;;;4.45;1.50;;;;;;;8.01;74.18;95348.47;5052153;28;20571;-76
2024/02/12 07:21:14;;;;;;;2.40;1.65;;;;;;;8.03;74.78;95359.47;5052387;28;20048;-77
2024/02/12 07:23:41;;;;;;;2.88;1.52;;;;;;;8.04;73.67;95353.28;5051854;28;20052;-76
2024/02/12 07:26:09;;;;;;;2.83;1.50;;;;;;;8.04;74.15;95364.44;5051276;28;20045;-77
2024/02/12 07:28:37;;;;;;;3.42;2.13;;;;;;;8.05;74.47;95352.28;5064099;22;20056;-80
2024/02/12 07:31:07;;;;;;;4.68;1.58;;;;;;;8.06;75.03;95366.88;5033573;28;20054;-80
2024/02/12 07:33:37;;;;;;;2.85;1.63;;;;;;;8.04;75.17;95368.84;5033662;28;20112;-80
2024/02/12 07:36:06;;;;;;;4.10;1.60;;;;;;;8.06;74.86;95372.06;5033276;28;20053;-80
2024/02/12 07:38:34;;;;;;;2.42;1.88;;;;;;;8.05;74.62;95373.88;5033380;28;20055;-80
2024/02/12 07:41:01;;;;;;;2.28;1.75;;;;;;;8.04;73.86;95374.06;5032893;28;20045;-80
2024/02/12 07:43:30;;;;;;;2.67;1.70;;;;;;;8.03;73.96;95385.44;5032959;28;20558;-80
2024/02/12 07:45:57;;;;;;;5.25;2.35;;;;;;;8.03;74.49;95385.44;5033214;28;20053;-80
2024/02/12 07:48:26;;;;;;;4.95;1.90;;;;;;;8.03;75.24;95390.63;5033356;28;20072;-80
2024/02/12 07:50:56;;;;;;;5.80;2.00;;;;;;;8.05;74.69;95396.44;5032913;28;20049;-80
2024/02/12 07:53:26;;;;;;;2.88;2.00;;;;;;;8.04;73.65;95398.22;5032468;28;20050;-80
2024/02/12 07:55:55;;;;;;;3.38;2.28;;;;;;;8.08;74.38;95411.63;5032711;28;20598;-79
2024/02/12 07:58:24;;;;;;;2.08;1.88;;;;;;;8.07;74.43;95404.84;5032807;28;20046;-79
2024/02/12 08:00:51;;;;;;;3.90;1.92;;;;;;;8.09;74.50;95400.25;5034527;28;20136;-80
2024/02/12 08:03:20;;;;;;;2.60;2.13;;;;;;;8.12;75.30;95407.66;5032660;28;20065;-80
2024/02/12 08:05:49;;;;;;;3.03;1.83;;;;;;;8.15;76.24;95422.81;5033038;28;20524;-80
2024/02/12 08:08:19;;;;;;;3.13;2.10;;;;;;;8.17;75.20;95425.25;5032452;28;20520;-80
2024/02/12 08:10:47;;;;;;;2.63;1.70;;;;;;;8.14;73.98;95429.03;5032961;28;20046;-80
2024/02/12 08:13:15;;;;;;;5.88;2.08;;;;;;;8.08;74.20;95427.22;5032529;28;20056;-80
2024/02/12 08:15:43;;;;;;;2.60;1.75;;;;;;;8.07;73.91;95433.41;5033293;28;20105;-80
2024/02/12 08:18:12;;;;;;;2.70;1.95;;;;;;;8.09;74.16;95433.19;5032667;28;20045;-80
2024/02/12 08:20:40;;;;;;;3.90;2.10;;;;;;;8.13;75.48;95434.41;5033050;28;20509;-80
2024/02/12 08:23:08;;;;;;;3.15;1.80;;;;;;;8.15;75.15;95435.81;5032712;28;20563;-80
2024/02/12 08:25:38;;;;;;;3.05;1.80;;;;;;;8.15;74.77;95443.59;5032702;28;20088;-80
2024/02/12 08:28:07;;;;;;;2.10;1.90;;;;;;;8.17;74.30;95452.00;5032488;28;20133;-80
2024/02/12 08:30:35;;;;;;;3.35;2.35;;;;;;;8.16;75.14;95453.00;5032960;28;20049;-80
2024/02/12 08:33:02;;;;;;;6.00;2.90;;;;;;;8.17;75.58;95451.22;5032905;28;20103;-80
2024/02/12 08:35:30;;;;;;;3.95;2.63;;;;;;;8.19;75.66;95449.22;5032416;28;20049;-80
2024/02/12 08:37:58;;;;;;;2.75;1.98;;;;;;;8.19;74.69;95450.03;5035500;28;20497;-80
2024/02/12 08:40:26;;;;;;;2.55;1.88;;;;;;;8.18;74.41;95461.41;5035412;28;20051;-80
2024/02/12 08:42:56;;;;;;;3.17;1.83;;;;;;;8.20;75.77;95467.22;5036449;28;20132;-80
2024/02/12 08:45:24;;;;;;;4.40;2.15;;;;;;;8.18;73.92;95473.63;5036166;28;20092;-80
2024/02/12 08:47:51;;;;;;;2.58;1.70;;;;;;;8.12;74.03;95475.19;5035778;28;20049;-80
2024/02/12 08:50:19;;;;;;;3.28;2.03;;;;;;;8.08;73.62;95479.16;5036025;28;20488;-80
2024/02/12 08:52:47;;;;;;;3.38;2.33;;;;;;;8.09;74.82;95475.56;5035980;28;20046;-80
2024/02/12 08:55:16;;;;;;;3.38;1.73;;;;;;;8.09;74.36;95480.78;5035699;28;20133;-80
2024/02/12 08:57:44;;;;;;;2.53;1.80;;;;;;;8.08;73.27;95483.56;5035335;28;20559;-80
2024/02/12 09:00:15;;;;;;;2.25;1.70;;;;;;;8.09;73.93;95485.97;5035818;28;20053;-80
2024/02/12 09:02:42;;;;;;;2.30;1.90;;;;;;;8.09;73.71;95490.34;5035713;28;20140;-80
2024/02/12 09:05:11;;;;;;;4.40;1.98;;;;;;;8.09;73.84;95482.53;5051152;28;20132;-80
2024/02/12 09:07:39;;;;;;;2.47;2.28;;;;;;;8.10;74.55;95487.56;5054820;28;20049;-80
2024/02/12 09:10:09;;;;;;;2.25;1.50;;;;;;;8.14;74.36;95493.97;5053169;28;20033;-80
2024/02/12 09:12:37;;;;;;;3.85;1.70;;;;;;;8.14;73.14;95495.78;5054161;28;20050;-80
2024/02/12 09:15:21;;;;;;;3.85;1.60;;;;;;;8.14;72.74;95509.56;5047419;28;20054;-80
2024/02/12 09:17:50;;;;;;;2.67;1.73;;;;;;;8.10;72.09;95507.53;5036046;28;20429;-80
2024/02/12 09:20:18;;;;;;;2.13;1.42;;;;;;;8.08;72.81;95505.13;5035383;28;20460;-80
2024/02/12 09:22:45;;;;;;;3.35;1.52;;;;;;;8.08;72.59;95505.13;5035383;28;20493;-80
2024/02/12 09:25:13;;;;;;;1.42;1.00;;;;;;;8.07;71.98;95513.94;5035661;28;20493;-80
2024/02/12 09:27:45;;;;;;;1.40;1.30;;;;;;;8.07;73.35;95518.28;5035069;28;20564;-80
2024/02/12 09:30:15;;;;;;;1.90;1.50;;;;;;;8.10;72.47;95512.72;5035543;28;20045;-80
2024/02/12 09:32:46;;;;;;;1.67;1.33;;;;;;;8.12;73.63;95516.72;5034933;28;20148;-80
2024/02/12 09:35:17;;;;;;;1.58;1.30;;;;;;;8.15;72.76;95521.53;5035109;28;20053;-80
2024/02/12 09:37:47;;;;;;;2.67;1.77;;;;;;;8.20;73.95;95521.78;5034924;28;20088;-80
2024/02/12 09:40:19;;;;;;;2.67;1.52;;;;;;;8.23;72.67;95526.56;5034978;28;20084;-80
2024/02/12 09:42:48;;;;;;;1.25;1.10;;;;;;;8.25;73.24;95532.38;5035058;28;20054;-80
2024/02/12 09:45:17;;;;;;;3.83;1.48;;;;;;;8.31;73.08;95535.19;5035195;28;20049;-80
2024/02/12 09:47:47;;;;;;;2.05;1.55;;;;;;;8.35;73.40;95533.81;5034450;28;20501;-80
2024/02/12 09:50:15;;;;;;;1.55;1.40;;;;;;;8.40;72.79;95539.25;5035222;28;20049;-80
2024/02/12 09:52:44;;;;;;;1.75;1.35;;;;;;;8.42;72.89;95532.09;5035144;28;20045;-80
2024/02/12 09:55:12;;;;;;;1.27;1.17;;;;;;;8.46;72.27;95533.28;5034620;28;20479;-80
2024/02/12 09:57:40;;;;;;;2.88;1.38;;;;;;;8.53;73.01;95533.34;5034601;28;20501;-80
2024/02/12 10:00:10;;;;;;;2.03;1.45;;;;;;;8.61;73.36;95530.53;5034670;28;20046;-80
2024/02/12 10:02:39;;;;;;;2.35;1.58;;;;;;;8.65;72.40;95537.75;5034405;28;20507;-80
2024/02/12 10:05:11;;;;;;;1.23;1.08;;;;;;;8.70;71.21;95533.75;5034259;28;20108;-80
2024/02/12 10:07:40;;;;;;;2.00;1.30;;;;;;;8.73;71.24;95543.78;5034760;28;20061;-80
2024/02/12 10:10:12;;;;;;;1.83;1.40;;;;;;;8.72;70.43;95539.56;5034501;28;20084;-80
2024/02/12 10:12:39;;;;;;;3.50;1.40;;;;;;;8.72;71.42;95539.56;5034577;28;20056;-80
2024/02/12 10:15:07;;;;;;;2.88;1.50;;;;;;;8.71;70.64;95543.97;5034337;28;20136;-80
2024/02/12 10:17:35;;;;;;;3.60;2.15;;;;;;;8.72;72.12;95555.16;5034439;28;20091;-80
2024/02/12 10:20:09;;;;;;;2.50;1.92;;;;;;;8.75;71.54;95552.19;5034157;28;20049;-80
2024/02/12 10:22:40;;;;;;;3.65;2.67;;;;;;;8.76;70.09;95561.59;5034068;28;20057;-80
2024/02/12 10:25:09;;;;;;;2.47;1.98;;;;;;;8.75;70.30;95560.00;5033951;28;20073;-80
2024/02/12 10:27:37;;;;;;;4.55;2.08;;;;;;;8.78;70.11;95567.41;5033895;28;20049;-80
2024/02/12 10:30:06;;;;;;;3.92;1.88;;;;;;;8.81;71.18;95556.59;5034005;28;20046;-80
2024/02/12 10:32:35;;;;;;;2.85;1.67;;;;;;;8.85;71.02;95563.84;5033766;28;20088;-80
2024/02/12 10:35:07;;;;;;;1.33;1.23;;;;;;;8.89;71.46;95559.03;5033699;28;20574;-80
2024/02/12 10:37:36;;;;;;;2.08;1.88;;;;;;;8.93;71.93;95551.63;5033206;28;20075;-80
2024/02/12 10:40:12;;;;;;;2.10;1.90;;;;;;;8.96;73.71;95559.03;5033273;28;20050;-80
2024/02/12 10:42:48;;;;;;;2.42;1.55;;;;;;;8.99;70.35;95558.66;5033450;28;20046;-79
2024/02/12 10:45:16;;;;;;;3.33;1.90;;;;;;;8.97;70.34;95558.84;5033681;28;20084;-80
2024/02/12 10:47:45;;;;;;;2.83;1.50;;;;;;;8.95;70.71;95558.25;5033995;28;20341;-80
2024/02/12 10:50:14;;;;;;;2.47;1.50;;;;;;;8.99;70.72;95554.25;5033500;28;20057;-80
2024/02/12 10:52:42;;;;;;;1.88;1.45;;;;;;;9.07;71.24;95555.84;5033626;28;20100;-80
2024/02/12 10:55:12;;;;;;;3.40;1.60;;;;;;;9.12;69.92;95557.84;5033363;28;20493;-80
2024/02/12 10:57:43;;;;;;;3.85;1.90;;;;;;;9.06;69.84;95559.47;5033682;28;20095;-80
2024/02/12 11:00:19;;;;;;;5.38;1.90;;;;;;;9.05;68.99;95558.66;5037996;28;20049;-80
2024/02/12 11:02:50;;;;;;;3.10;1.50;;;;;;;9.04;68.73;95562.25;5038988;28;20512;-80
2024/02/12 11:05:18;;;;;;;2.15;1.40;;;;;;;9.05;68.84;95569.06;5054064;28;20079;-80
2024/02/12 11:07:46;;;;;;;3.03;2.03;;;;;;;9.03;69.38;95563.25;5052816;28;20099;-80
2024/02/12 11:10:19;;;;;;;3.67;1.98;;;;;;;9.00;68.30;95561.03;5050526;28;20046;-80
2024/02/12 11:12:47;;;;;;;2.70;1.95;;;;;;;8.95;69.75;95566.03;5036206;28;20053;-80
2024/02/12 11:15:24;;;;;;;2.55;1.60;;;;;;;8.93;70.34;95570.63;5035779;28;20053;-80
2024/02/12 11:17:52;;;;;;;2.30;1.67;;;;;;;8.95;70.11;95573.06;5034507;28;20099;-80
2024/02/12 11:20:23;;;;;;;2.42;2.13;;;;;;;8.93;69.95;95570.63;5033493;28;20512;-80
2024/02/12 11:22:52;;;;;;;3.42;2.67;;;;;;;8.90;69.28;95580.63;5033846;28;20260;-80
2024/02/12 11:25:21;;;;;;;3.38;2.28;;;;;;;8.93;69.87;95575.03;5033487;28;20054;-80
2024/02/12 11:27:52;;;;;;;2.03;1.50;;;;;;;8.98;70.44;95578.66;5033416;28;20049;-81
2024/02/12 11:30:20;;;;;;;1.60;1.40;;;;;;;9.01;68.97;95575.66;5032867;28;20061;-80
2024/02/12 11:32:49;;;;;;;2.83;1.65;;;;;;;9.00;69.09;95581.06;5033697;28;20049;-80
2024/02/12 11:35:19;;;;;;;5.47;1.90;;;;;;;8.95;68.35;95576.44;5033746;28;20065;-80
2024/02/12 11:37:47;;;;;;;6.55;2.08;;;;;;;8.86;68.42;95588.03;5033276;28;20057;-79
2024/02/12 11:40:19;;;;;;;3.08;1.50;;;;;;;8.86;69.68;95588.03;5033512;28;20046;-79
2024/02/12 11:42:50;;;;;;;4.13;1.67;;;;;;;8.89;68.76;95590.22;5034141;28;20077;-80
2024/02/12 11:45:20;;;;;;;3.30;1.50;;;;;;;8.92;68.96;95589.84;5033128;28;20049;-80
2024/02/12 11:47:48;;;;;;;2.65;2.15;;;;;;;8.94;68.87;95584.44;5033782;28;20136;-80
2024/02/12 11:50:24;;;;;;;1.88;1.63;;;;;;;8.96;70.70;95588.44;5033118;28;20048;-80
2024/02/12 11:52:52;;;;;;;2.67;1.90;;;;;;;8.98;68.34;95586.44;5032542;28;20148;-79
2024/02/12 11:55:20;;;;;;;1.85;1.27;;;;;;;8.94;68.27;95587.84;5033061;28;20152;-80
2024/02/12 11:57:49;;;;;;;3.53;1.92;;;;;;;8.90;68.55;95584.03;5032794;28;20092;-80
2024/02/12 12:00:17;;;;;;;3.97;1.58;;;;;;;8.92;69.28;95586.44;5032781;28;20513;-80
2024/02/12 12:02:47;;;;;;;3.65;1.77;;;;;;;8.93;69.71;95591.44;5032779;28;20511;-80